createdAt,value
2023-01-29T00:04:58.988Z,1029.4
2023-01-29T00:10:39.674Z,1029.4
2023-01-29T00:16:04.676Z,1029.6
2023-01-29T00:21:49.035Z,1029.6
2023-01-29T00:27:34.508Z,1029.7
2023-01-29T00:32:47.860Z,1029.6
2023-01-29T00:38:24.168Z,1029.6
2023-01-29T00:43:58.485Z,1029.5
2023-01-29T00:49:42.423Z,1029.6
2023-01-29T00:55:23.162Z,1029.5
2023-01-29T01:00:48.277Z,1029.5
2023-01-29T01:06:19.124Z,1029.4
2023-01-29T01:12:00.105Z,1029.4
2023-01-29T01:17:28.133Z,1029.5
2023-01-29T01:23:11.833Z,1029.7
2023-01-29T01:28:31.406Z,1029.7
2023-01-29T01:34:10.945Z,1029.9
2023-01-29T01:39:37.666Z,1029.8
2023-01-29T01:45:30.515Z,1029.9
2023-01-29T01:50:39.604Z,1030
2023-01-29T01:56:19.275Z,1029.9
2023-01-29T02:02:01.994Z,1030
2023-01-29T02:07:34.833Z,1030.1
2023-01-29T02:12:54.692Z,1030.1
2023-01-29T02:18:28.744Z,1030.1
2023-01-29T02:24:25.828Z,1030.1
2023-01-29T02:29:59.241Z,1030.1
2023-01-29T02:35:32.522Z,1030.1
2023-01-29T02:41:03.383Z,1030
2023-01-29T02:46:19.823Z,1030.2
2023-01-29T02:51:55.439Z,1030.2
2023-01-29T02:57:31.238Z,1030.1
2023-01-29T03:03:03.680Z,1030.2
2023-01-29T03:08:49.096Z,1030.3
2023-01-29T03:14:12.977Z,1030.2
2023-01-29T03:19:39.092Z,1030.3
2023-01-29T03:25:23.524Z,1030.3
2023-01-29T03:30:55.465Z,1030.3
2023-01-29T03:36:23.483Z,1030.3
2023-01-29T03:41:57.947Z,1030.2
2023-01-29T03:47:39.824Z,1030.1
2023-01-29T03:53:06.531Z,1030.1
2023-01-29T03:58:48.713Z,1030.2
2023-01-29T04:04:12.024Z,1030.2
2023-01-29T04:09:54.888Z,1030.2
2023-01-29T04:15:39.423Z,1030.1
2023-01-29T04:21:05.136Z,1030.1
2023-01-29T04:26:42.843Z,1030.1
2023-01-29T04:32:11.375Z,1030.1
2023-01-29T04:37:59.587Z,1030.1
2023-01-29T04:43:07.595Z,1030
2023-01-29T04:48:52.903Z,1030
2023-01-29T04:54:40.849Z,1030
2023-01-29T05:00:03.051Z,1030
2023-01-29T05:05:32.110Z,1030.2
2023-01-29T05:11:00.667Z,1030.3
2023-01-29T05:16:45.502Z,1030.4
2023-01-29T05:22:05.632Z,1030.6
2023-01-29T05:28:01.887Z,1030.6
2023-01-29T05:33:35.588Z,1030.6
2023-01-29T05:38:46.083Z,1030.7
2023-01-29T05:44:28.342Z,1030.6
2023-01-29T05:50:01.479Z,1030.6
2023-01-29T05:55:30.051Z,1030.8
2023-01-29T06:01:24.085Z,1030.6
2023-01-29T06:06:49.618Z,1030.9
2023-01-29T06:12:23.729Z,1031
2023-01-29T06:17:59.293Z,1031
2023-01-29T06:23:33.442Z,1031
2023-01-29T06:28:46.912Z,1031
2023-01-29T06:34:24.160Z,1031.1
2023-01-29T06:39:55.306Z,1031.2
2023-01-29T06:45:31.914Z,1031.3
2023-01-29T06:51:02.149Z,1031.4
2023-01-29T06:56:37.749Z,1031.4
2023-01-29T07:02:09.581Z,1031.3
2023-01-29T07:07:57.411Z,1031.2
2023-01-29T07:13:20.867Z,1031.3
2023-01-29T07:19:06.492Z,1031.3
2023-01-29T07:24:45.177Z,1031.3
2023-01-29T07:30:16.108Z,1031.3
2023-01-29T07:35:39.051Z,1031.3
2023-01-29T07:41:23.196Z,1031.3
2023-01-29T07:47:02.800Z,1031.4
2023-01-29T07:52:28.870Z,1031.3
2023-01-29T07:58:09.389Z,1031.4
2023-01-29T08:03:21.889Z,1031.2
2023-01-29T08:08:54.707Z,1031.3
2023-01-29T08:14:47.896Z,1031.3
2023-01-29T08:20:26.382Z,1031.3
2023-01-29T08:25:51.015Z,1031.3
2023-01-29T08:31:25.855Z,1031.3
2023-01-29T08:36:47.765Z,1031.4
2023-01-29T08:42:16.044Z,1031.3
2023-01-29T08:48:00.433Z,1031.3
2023-01-29T08:53:22.838Z,1031.2
2023-01-29T08:59:10.120Z,1031.3
2023-01-29T09:04:56.285Z,1031.3
2023-01-29T09:10:21.839Z,1031.4
2023-01-29T09:15:51.258Z,1031.5
2023-01-29T09:21:30.801Z,1031.6
2023-01-29T09:26:58.264Z,1031.7
2023-01-29T09:32:52.482Z,1031.7
2023-01-29T09:38:12.571Z,1031.6
2023-01-29T09:43:51.652Z,1031.7
2023-01-29T09:48:59.731Z,1031.7
2023-01-29T09:54:45.282Z,1031.7
2023-01-29T10:00:30.239Z,1031.7
2023-01-29T10:05:52.813Z,1031.7
2023-01-29T10:11:15.661Z,1031.7
2023-01-29T10:17:07.517Z,1031.7
2023-01-29T10:22:27.338Z,1031.7
2023-01-29T10:27:55.304Z,1031.7
2023-01-29T10:34:01.323Z,1031.7
2023-01-29T10:39:04.372Z,1031.6
2023-01-29T10:44:50.102Z,1031.7
2023-01-29T10:50:32.507Z,1031.8
2023-01-29T10:55:50.807Z,1031.8
2023-01-29T11:01:20.796Z,1031.6
2023-01-29T11:07:13.923Z,1031.7
2023-01-29T11:12:27.564Z,1031.6
2023-01-29T11:18:16.689Z,1031.5
2023-01-29T11:23:51.657Z,1031.5
2023-01-29T11:29:16.682Z,1031.5
2023-01-29T11:34:50.170Z,1031.3
2023-01-29T11:40:41.174Z,1031.3
2023-01-29T11:45:51.598Z,1031.3
2023-01-29T11:51:48.457Z,1031.2
2023-01-29T11:57:21.565Z,1031.3
2023-01-29T12:02:54.866Z,1031.3
2023-01-29T12:08:29.789Z,1031.2
2023-01-29T12:13:57.857Z,1031.1
2023-01-29T12:19:29.795Z,1031.1
2023-01-29T12:25:04.319Z,1031
2023-01-29T12:30:28.571Z,1031.1
2023-01-29T12:35:54.494Z,1031
2023-01-29T12:41:39.372Z,1030.9
2023-01-29T12:47:10.295Z,1030.8
2023-01-29T12:52:58.399Z,1030.9
2023-01-29T12:58:24.632Z,1030.8
2023-01-29T13:03:43.181Z,1030.8
2023-01-29T13:09:36.825Z,1030.7
2023-01-29T13:15:02.938Z,1030.6
2023-01-29T13:20:27.494Z,1030.6
2023-01-29T13:26:01.091Z,1030.6
2023-01-29T13:31:48.157Z,1030.7
2023-01-29T13:37:17.491Z,1030.6
2023-01-29T13:42:41.312Z,1030.7
2023-01-29T13:48:24.882Z,1030.7
2023-01-29T13:53:45.472Z,1030.6
2023-01-29T13:59:31.976Z,1030.7
2023-01-29T14:05:01.560Z,1030.6
2023-01-29T14:10:41.216Z,1030.5
2023-01-29T14:15:52.108Z,1030.4
2023-01-29T14:21:38.748Z,1030.3
2023-01-29T14:27:11.649Z,1030.4
2023-01-29T14:32:54.269Z,1030.3
2023-01-29T14:38:32.711Z,1030.3
2023-01-29T14:44:04.264Z,1030.2
2023-01-29T14:49:13.313Z,1030.3
2023-01-29T14:54:58.711Z,1030.4
2023-01-29T15:00:25.928Z,1030.4
2023-01-29T15:06:09.537Z,1030.3
2023-01-29T15:11:53.396Z,1030.4
2023-01-29T15:17:18.135Z,1030.4
2023-01-29T15:22:33.025Z,1030.3
2023-01-29T15:28:10.325Z,1030.3
2023-01-29T15:34:03.652Z,1030.2
2023-01-29T15:39:17.667Z,1030.2
2023-01-29T15:45:09.261Z,1030.3
2023-01-29T15:50:21.913Z,1030.3
2023-01-29T15:56:01.965Z,1030.3
2023-01-29T16:01:23.756Z,1030.2
2023-01-29T16:07:00.103Z,1030.3
2023-01-29T16:12:39.505Z,1030.5
2023-01-29T16:18:15.425Z,1030.5
2023-01-29T16:23:56.673Z,1030.5
2023-01-29T16:29:13.661Z,1030.7
2023-01-29T16:35:07.783Z,1030.6
2023-01-29T16:40:24.934Z,1030.7
2023-01-29T16:45:52.374Z,1030.9
2023-01-29T16:51:45.615Z,1031
2023-01-29T16:57:14.474Z,1031.2
2023-01-29T17:02:29.674Z,1031.2
2023-01-29T17:08:10.854Z,1031.4
2023-01-29T17:13:47.003Z,1031.4
2023-01-29T17:19:25.820Z,1031.6
2023-01-29T17:24:57.563Z,1031.7
2023-01-29T17:30:28.561Z,1031.7
2023-01-29T17:35:52.612Z,1031.8
2023-01-29T17:41:20.292Z,1031.9
2023-01-29T17:46:59.896Z,1031.9
2023-01-29T17:52:32.896Z,1031.8
2023-01-29T17:58:10.573Z,1031.7
2023-01-29T18:03:35.389Z,1032
2023-01-29T18:09:08.798Z,1032.3
2023-01-29T18:14:47.888Z,1032
2023-01-29T18:20:13.842Z,1031.9
2023-01-29T18:25:37.246Z,1031.8
2023-01-29T18:31:31.211Z,1031.6
2023-01-29T18:36:48.980Z,1031.6
2023-01-29T18:42:39.884Z,1031.5
2023-01-29T18:47:56.401Z,1031.5
2023-01-29T18:53:21.349Z,1031.6
2023-01-29T18:58:57.506Z,1031.7
2023-01-29T19:04:54.928Z,1031.7
2023-01-29T19:10:12.430Z,1031.9
2023-01-29T19:15:53.637Z,1031.9
2023-01-29T19:21:16.421Z,1032
2023-01-29T19:26:40.661Z,1032
2023-01-29T19:32:38.611Z,1032
2023-01-29T19:38:09.418Z,1032.1
2023-01-29T19:43:38.311Z,1032.1
2023-01-29T19:48:49.087Z,1032.1
2023-01-29T19:54:39.366Z,1032.1
2023-01-29T20:00:16.003Z,1032.1
2023-01-29T20:05:49.570Z,1032.2
2023-01-29T20:11:09.008Z,1032.2
2023-01-29T20:16:54.225Z,1032.3
2023-01-29T20:22:18.784Z,1032.4
2023-01-29T20:27:49.014Z,1032.6
2023-01-29T20:33:13.421Z,1032.6
2023-01-29T20:38:59.096Z,1032.5
2023-01-29T20:44:39.460Z,1032.4
2023-01-29T20:50:17.079Z,1032.5
2023-01-29T20:55:44.123Z,1032.5
2023-01-29T21:00:57.868Z,1032.6
2023-01-29T21:06:43.581Z,1032.7
2023-01-29T21:12:04.029Z,1032.8
2023-01-29T21:17:44.455Z,1032.7
2023-01-29T21:23:19.126Z,1032.8
2023-01-29T21:28:47.718Z,1032.8
2023-01-29T21:34:14.629Z,1032.7
2023-01-29T21:40:03.522Z,1032.8
2023-01-29T21:45:24.731Z,1032.7
2023-01-29T21:50:48.483Z,1032.6
2023-01-29T21:56:27.362Z,1032.6
2023-01-29T22:02:12.020Z,1032.6
2023-01-29T22:07:49.467Z,1032.6
2023-01-29T22:13:13.997Z,1032.7
2023-01-29T22:18:54.522Z,1032.6
2023-01-29T22:24:02.987Z,1032.6
2023-01-29T22:29:36.724Z,1032.5
2023-01-29T22:35:12.378Z,1032.5
2023-01-29T22:40:56.908Z,1032.4
2023-01-29T22:46:26.183Z,1032.3
2023-01-29T22:52:09.569Z,1032.2
2023-01-29T22:57:44.080Z,1032.1
2023-01-29T23:03:16.311Z,1032
2023-01-29T23:08:46.463Z,1032
2023-01-29T23:14:03.093Z,1031.9
2023-01-29T23:19:46.589Z,1031.8
2023-01-29T23:25:02.219Z,1031.8
2023-01-29T23:30:40.554Z,1031.9
2023-01-29T23:36:26.637Z,1031.9
2023-01-29T23:41:41.061Z,1031.8
2023-01-29T23:47:38.629Z,1031.8
2023-01-29T23:53:02.551Z,1031.8
2023-01-29T23:58:20.107Z,1031.7
